createdAt,value
2023-04-27T00:01:43.838Z,4.80
2023-04-27T00:04:11.122Z,4.80
2023-04-27T00:06:38.232Z,4.70
2023-04-27T00:09:05.164Z,4.70
2023-04-27T00:11:32.217Z,4.70
2023-04-27T00:13:59.191Z,4.60
2023-04-27T00:16:26.535Z,4.60
2023-04-27T00:18:54.015Z,4.60
2023-04-27T00:21:21.129Z,4.50
2023-04-27T00:23:48.048Z,4.50
2023-04-27T00:26:14.956Z,4.40
2023-04-27T00:28:41.930Z,4.30
2023-04-27T00:31:09.157Z,4.30
2023-04-27T00:33:36.333Z,4.30
2023-04-27T00:36:03.282Z,4.30
2023-04-27T00:38:30.824Z,4.30
2023-04-27T00:41:05.958Z,4.20
2023-04-27T00:43:34.062Z,4.20
2023-04-27T00:46:03.573Z,4.20
2023-04-27T00:48:30.512Z,4.10
2023-04-27T00:50:57.438Z,4.10
2023-04-27T00:53:24.538Z,4.10
2023-04-27T00:55:51.550Z,4.00
2023-04-27T00:58:18.571Z,4.00
2023-04-27T01:00:45.591Z,4.00
2023-04-27T01:03:12.618Z,4.00
2023-04-27T01:05:39.752Z,4.00
2023-04-27T01:08:06.724Z,4.00
2023-04-27T01:10:33.747Z,4.00
2023-04-27T01:13:00.673Z,3.90
2023-04-27T01:15:27.830Z,3.90
2023-04-27T01:18:02.153Z,3.80
2023-04-27T01:20:30.492Z,3.80
2023-04-27T01:22:58.481Z,3.70
2023-04-27T01:25:26.142Z,3.60
2023-04-27T01:27:54.273Z,3.70
2023-04-27T01:30:22.701Z,3.60
2023-04-27T01:32:50.669Z,3.60
2023-04-27T01:35:17.750Z,3.50
2023-04-27T01:37:44.719Z,3.50
2023-04-27T01:40:13.111Z,3.50
2023-04-27T01:42:40.059Z,3.50
2023-04-27T01:45:07.936Z,3.60
2023-04-27T01:47:35.036Z,3.60
2023-04-27T01:50:02.340Z,3.50
2023-04-27T01:52:29.282Z,3.40
2023-04-27T01:54:56.292Z,3.30
2023-04-27T01:57:23.269Z,3.30
2023-04-27T01:59:50.237Z,3.30
2023-04-27T02:02:17.186Z,3.30
2023-04-27T02:04:45.237Z,3.20
2023-04-27T02:07:12.420Z,3.30
2023-04-27T02:09:39.408Z,3.30
2023-04-27T02:12:06.631Z,3.40
2023-04-27T02:14:33.587Z,3.50
2023-04-27T02:17:00.664Z,3.50
2023-04-27T02:19:27.731Z,3.50
2023-04-27T02:21:54.680Z,3.50
2023-04-27T02:24:21.582Z,3.50
2023-04-27T02:26:48.595Z,3.60
2023-04-27T02:29:15.769Z,3.50
2023-04-27T02:31:43.280Z,3.50
2023-04-27T02:34:10.273Z,3.50
2023-04-27T02:36:37.358Z,3.50
2023-04-27T02:39:04.392Z,3.60
2023-04-27T02:41:34.440Z,3.70
2023-04-27T02:44:01.331Z,3.70
2023-04-27T02:46:28.336Z,3.80
2023-04-27T02:48:56.570Z,3.80
2023-04-27T02:51:23.904Z,3.80
2023-04-27T02:53:53.135Z,3.80
2023-04-27T02:56:20.069Z,3.70
2023-04-27T02:58:47.983Z,3.70
2023-04-27T03:01:18.094Z,3.70
2023-04-27T03:03:48.356Z,3.60
2023-04-27T03:06:15.753Z,3.60
2023-04-27T03:08:42.777Z,3.40
2023-04-27T03:11:09.899Z,3.40
2023-04-27T03:13:41.980Z,3.30
2023-04-27T03:16:12.008Z,3.20
2023-04-27T03:18:40.288Z,3.10
2023-04-27T03:21:12.227Z,3.10
2023-04-27T03:23:40.005Z,3.10
2023-04-27T03:26:12.387Z,3.10
2023-04-27T03:28:39.412Z,3.10
2023-04-27T03:31:07.850Z,3.10
2023-04-27T03:33:35.113Z,3.20
2023-04-27T03:36:02.725Z,3.20
2023-04-27T03:38:29.717Z,3.20
2023-04-27T03:40:57.318Z,3.20
2023-04-27T03:43:25.219Z,3.20
2023-04-27T03:45:52.855Z,3.20
2023-04-27T03:48:20.732Z,3.30
2023-04-27T03:50:48.076Z,3.30
2023-04-27T03:53:15.770Z,3.30
2023-04-27T03:55:44.701Z,3.30
2023-04-27T03:58:12.073Z,3.30
2023-04-27T04:00:39.718Z,3.30
2023-04-27T04:03:08.085Z,3.30
2023-04-27T04:05:35.494Z,3.30
2023-04-27T04:08:02.441Z,3.30
2023-04-27T04:10:29.568Z,3.30
2023-04-27T04:12:56.534Z,3.30
2023-04-27T04:15:23.479Z,3.30
2023-04-27T04:17:51.317Z,3.40
2023-04-27T04:20:18.503Z,3.40
2023-04-27T04:22:45.627Z,3.40
2023-04-27T04:25:13.132Z,3.40
2023-04-27T04:27:41.081Z,3.40
2023-04-27T04:30:08.528Z,3.40
2023-04-27T04:32:38.077Z,3.50
2023-04-27T04:35:08.516Z,3.50
2023-04-27T04:37:35.696Z,3.50
2023-04-27T04:40:10.683Z,3.60
2023-04-27T04:42:38.492Z,3.60
2023-04-27T04:45:07.448Z,3.60
2023-04-27T04:47:34.612Z,3.60
2023-04-27T04:50:01.632Z,3.70
2023-04-27T04:52:28.658Z,3.70
2023-04-27T04:54:55.609Z,3.80
2023-04-27T04:57:22.541Z,3.90
2023-04-27T04:59:49.459Z,3.90
2023-04-27T05:02:16.404Z,4.00
2023-04-27T05:04:43.599Z,4.00
2023-04-27T05:07:14.554Z,4.10
2023-04-27T05:09:41.996Z,4.10
2023-04-27T05:12:09.006Z,4.20
2023-04-27T05:14:36.189Z,4.30
2023-04-27T05:17:03.188Z,4.40
2023-04-27T05:19:31.299Z,4.50
2023-04-27T05:22:01.367Z,4.60
2023-04-27T05:24:28.290Z,4.60
2023-04-27T05:26:55.449Z,4.80
2023-04-27T05:29:23.080Z,4.90
2023-04-27T05:31:50.170Z,5.00
2023-04-27T05:34:17.473Z,5.00
2023-04-27T05:36:45.139Z,5.00
2023-04-27T05:39:12.227Z,5.10
2023-04-27T05:41:39.448Z,5.20
2023-04-27T05:44:07.050Z,5.30
2023-04-27T05:46:35.392Z,5.40
2023-04-27T05:49:04.037Z,5.60
2023-04-27T05:51:32.685Z,5.80
2023-04-27T05:54:01.761Z,5.90
2023-04-27T05:56:28.791Z,6.00
2023-04-27T05:58:55.737Z,6.20
2023-04-27T06:01:23.503Z,6.30
2023-04-27T06:03:50.749Z,6.50
2023-04-27T06:06:17.956Z,6.60
2023-04-27T06:08:44.878Z,6.80
2023-04-27T06:11:11.870Z,6.90
2023-04-27T06:13:38.819Z,7.00
2023-04-27T06:16:06.158Z,7.10
2023-04-27T06:18:33.141Z,7.20
2023-04-27T06:21:01.790Z,7.30
2023-04-27T06:23:29.236Z,7.40
2023-04-27T06:25:56.321Z,7.50
2023-04-27T06:28:23.342Z,7.60
2023-04-27T06:30:50.313Z,7.70
2023-04-27T06:33:17.315Z,7.90
2023-04-27T06:35:47.342Z,8.10
2023-04-27T06:38:14.661Z,8.10
2023-04-27T06:40:41.846Z,8.20
2023-04-27T06:43:08.785Z,8.40
2023-04-27T06:45:36.182Z,8.60
2023-04-27T06:48:03.401Z,8.90
2023-04-27T06:50:30.814Z,9.30
2023-04-27T06:52:57.862Z,10.00
2023-04-27T06:55:24.841Z,10.50
2023-04-27T06:57:51.871Z,11.10
2023-04-27T07:00:19.851Z,12.00
2023-04-27T07:02:46.903Z,13.30
2023-04-27T07:05:13.951Z,14.30
2023-04-27T07:07:41.057Z,15.10
2023-04-27T07:10:09.204Z,15.90
2023-04-27T07:12:37.491Z,16.30
2023-04-27T07:15:06.595Z,16.00
2023-04-27T07:17:33.821Z,15.70
2023-04-27T07:20:06.423Z,15.40
2023-04-27T07:22:33.812Z,15.40
2023-04-27T07:25:00.972Z,15.20
2023-04-27T07:27:28.084Z,15.00
2023-04-27T07:29:54.968Z,14.50
2023-04-27T07:32:22.749Z,14.10
2023-04-27T07:34:54.207Z,13.60
2023-04-27T07:37:23.285Z,13.20
2023-04-27T07:39:54.439Z,12.90
2023-04-27T07:42:25.099Z,12.70
2023-04-27T07:44:54.101Z,12.60
2023-04-27T07:47:21.783Z,12.40
2023-04-27T07:49:48.994Z,12.40
2023-04-27T07:52:16.517Z,12.70
2023-04-27T07:54:43.426Z,13.20
2023-04-27T07:57:14.171Z,13.50
2023-04-27T07:59:41.376Z,13.80
2023-04-27T08:02:19.241Z,13.70
2023-04-27T08:04:48.236Z,13.70
2023-04-27T08:07:19.907Z,13.60
2023-04-27T08:09:46.980Z,13.70
2023-04-27T08:12:13.940Z,13.60
2023-04-27T08:14:41.098Z,13.70
2023-04-27T08:17:08.015Z,13.70
2023-04-27T08:19:34.973Z,13.70
2023-04-27T08:22:01.884Z,13.70
2023-04-27T08:24:28.800Z,13.60
2023-04-27T08:26:55.975Z,13.60
2023-04-27T08:29:27.685Z,13.60
2023-04-27T08:31:59.552Z,13.60
2023-04-27T08:34:27.784Z,13.70
2023-04-27T08:36:55.465Z,13.80
2023-04-27T08:39:23.410Z,13.90
2023-04-27T08:41:50.363Z,13.90
2023-04-27T08:44:18.291Z,13.80
2023-04-27T08:46:45.369Z,14.00
2023-04-27T08:49:15.163Z,14.00
2023-04-27T08:51:44.162Z,14.10
2023-04-27T08:54:11.164Z,14.30
2023-04-27T08:56:39.429Z,14.30
2023-04-27T08:59:15.995Z,14.40
2023-04-27T09:01:51.136Z,14.40
2023-04-27T09:04:19.848Z,14.30
2023-04-27T09:06:47.149Z,14.30
2023-04-27T09:09:23.774Z,14.20
2023-04-27T09:11:51.303Z,14.20
2023-04-27T09:14:21.708Z,14.30
2023-04-27T09:16:59.994Z,14.10
2023-04-27T09:19:29.943Z,14.00
2023-04-27T09:22:11.490Z,14.10
2023-04-27T09:24:38.700Z,14.20
2023-04-27T09:27:07.581Z,14.20
2023-04-27T09:29:39.024Z,14.30
2023-04-27T09:32:20.873Z,14.20
2023-04-27T09:34:48.024Z,14.30
2023-04-27T09:37:15.828Z,14.60
2023-04-27T09:39:43.388Z,14.70
2023-04-27T09:42:12.721Z,14.90
2023-04-27T09:44:39.781Z,14.90
2023-04-27T09:47:07.537Z,15.00
2023-04-27T09:49:35.148Z,15.20
2023-04-27T09:52:02.123Z,15.40
2023-04-27T09:54:33.673Z,15.30
2023-04-27T09:57:31.136Z,15.50
2023-04-27T10:00:33.986Z,15.50
2023-04-27T10:03:28.061Z,15.30
2023-04-27T10:06:32.920Z,15.00
2023-04-27T10:09:00.938Z,15.00
2023-04-27T10:11:48.067Z,15.10
2023-04-27T10:14:20.551Z,15.20
2023-04-27T10:16:52.114Z,15.00
2023-04-27T10:19:20.844Z,15.20
2023-04-27T10:22:03.812Z,15.40
2023-04-27T10:24:44.099Z,15.50
2023-04-27T10:27:13.476Z,15.60
2023-04-27T10:29:46.245Z,15.70
2023-04-27T10:32:21.286Z,15.60
2023-04-27T10:34:49.174Z,15.60
2023-04-27T10:37:17.657Z,15.60
2023-04-27T10:39:48.991Z,15.40
2023-04-27T10:42:29.727Z,15.50
2023-04-27T10:44:59.908Z,15.60
2023-04-27T10:47:46.274Z,15.80
2023-04-27T10:50:14.269Z,15.80
2023-04-27T10:52:46.648Z,15.80
2023-04-27T10:55:22.164Z,16.00
2023-04-27T10:57:54.444Z,16.30
2023-04-27T11:00:46.601Z,16.40
2023-04-27T11:03:22.509Z,16.60
2023-04-27T11:06:00.015Z,16.80
2023-04-27T11:08:27.036Z,17.00
2023-04-27T11:10:53.975Z,16.90
2023-04-27T11:13:24.081Z,16.90
2023-04-27T11:15:54.384Z,17.00
2023-04-27T11:18:24.908Z,17.00
2023-04-27T11:21:10.096Z,17.10
2023-04-27T11:23:38.629Z,17.30
2023-04-27T11:26:26.760Z,17.60
2023-04-27T11:28:59.878Z,17.70
2023-04-27T11:31:28.948Z,17.80
2023-04-27T11:33:56.272Z,18.10
2023-04-27T11:36:24.423Z,18.10
2023-04-27T11:38:51.390Z,18.20
2023-04-27T11:41:18.325Z,18.50
2023-04-27T11:43:51.380Z,18.60
2023-04-27T11:46:22.390Z,18.80
2023-04-27T11:48:49.495Z,18.90
2023-04-27T11:51:16.478Z,18.80
2023-04-27T11:53:48.468Z,18.60
2023-04-27T11:56:15.652Z,18.70
2023-04-27T11:58:46.295Z,18.70
2023-04-27T12:01:13.571Z,18.80
2023-04-27T12:03:41.241Z,18.80
2023-04-27T12:06:27.156Z,18.60
2023-04-27T12:08:58.331Z,18.50
2023-04-27T12:11:28.468Z,18.30
2023-04-27T12:13:55.695Z,18.40
2023-04-27T12:16:23.254Z,18.70
2023-04-27T12:18:51.045Z,18.70
2023-04-27T12:21:18.296Z,19.10
2023-04-27T12:23:45.651Z,19.10
2023-04-27T12:26:15.024Z,18.90
2023-04-27T12:28:42.330Z,18.90
2023-04-27T12:31:09.377Z,19.30
2023-04-27T12:33:36.467Z,19.40
2023-04-27T12:36:03.570Z,19.80
2023-04-27T12:38:30.528Z,19.90
2023-04-27T12:40:59.182Z,20.20
2023-04-27T12:43:26.377Z,20.20
2023-04-27T12:45:53.441Z,20.40
2023-04-27T12:48:20.779Z,20.50
2023-04-27T12:50:47.717Z,20.10
2023-04-27T12:53:14.725Z,19.60
2023-04-27T12:55:41.780Z,19.20
2023-04-27T12:58:08.764Z,19.30
2023-04-27T13:00:35.856Z,19.40
2023-04-27T13:03:03.004Z,19.60
2023-04-27T13:05:31.866Z,19.80
2023-04-27T13:07:59.237Z,19.50
2023-04-27T13:10:26.267Z,19.50
2023-04-27T13:12:54.666Z,19.40
2023-04-27T13:15:21.706Z,19.40
2023-04-27T13:17:48.688Z,19.50
2023-04-27T13:20:15.600Z,19.40
2023-04-27T13:22:42.675Z,19.70
2023-04-27T13:25:10.605Z,19.90
2023-04-27T13:27:37.549Z,19.70
2023-04-27T13:30:05.386Z,19.60
2023-04-27T13:32:32.583Z,19.40
2023-04-27T13:34:59.678Z,19.20
2023-04-27T13:37:27.170Z,19.10
2023-04-27T13:39:54.133Z,19.20
2023-04-27T13:42:21.686Z,19.40
2023-04-27T13:44:48.589Z,19.70
2023-04-27T13:47:15.617Z,19.70
2023-04-27T13:49:42.713Z,19.80
2023-04-27T13:52:10.327Z,20.00
2023-04-27T13:54:37.244Z,20.40
2023-04-27T13:57:04.266Z,20.30
2023-04-27T13:59:31.257Z,20.20
2023-04-27T14:01:58.178Z,20.20
2023-04-27T14:04:25.169Z,20.20
2023-04-27T14:06:52.120Z,20.10
2023-04-27T14:09:19.222Z,20.00
2023-04-27T14:11:55.506Z,19.80
2023-04-27T14:14:23.673Z,19.30
2023-04-27T14:16:53.428Z,19.20
2023-04-27T14:19:20.681Z,19.00
2023-04-27T14:21:49.319Z,18.60
2023-04-27T14:24:16.515Z,18.20
2023-04-27T14:26:44.295Z,18.10
2023-04-27T14:29:11.845Z,18.00
2023-04-27T14:31:39.748Z,17.80
2023-04-27T14:34:07.958Z,17.60
2023-04-27T14:36:35.846Z,17.40
2023-04-27T14:39:04.806Z,17.30
2023-04-27T14:41:31.759Z,17.40
2023-04-27T14:43:58.711Z,17.40
2023-04-27T14:46:25.893Z,17.30
2023-04-27T14:48:52.876Z,17.40
2023-04-27T14:51:19.947Z,17.50
2023-04-27T14:53:46.857Z,17.40
2023-04-27T14:56:13.805Z,17.40
2023-04-27T14:58:41.484Z,17.40
2023-04-27T15:01:08.683Z,17.30
2023-04-27T15:03:35.740Z,17.40
2023-04-27T15:06:03.459Z,17.40
2023-04-27T15:08:32.675Z,17.50
2023-04-27T15:11:01.144Z,17.40
2023-04-27T15:13:28.453Z,17.20
2023-04-27T15:15:57.046Z,17.10
2023-04-27T15:18:25.158Z,17.00
2023-04-27T15:20:58.255Z,16.90
2023-04-27T15:23:26.947Z,16.90
2023-04-27T15:25:58.504Z,16.90
2023-04-27T15:28:25.891Z,16.80
2023-04-27T15:30:52.994Z,16.70
2023-04-27T15:33:20.139Z,16.60
2023-04-27T15:35:47.047Z,16.50
2023-04-27T15:38:15.589Z,16.50
2023-04-27T15:40:42.641Z,16.40
2023-04-27T15:43:09.755Z,16.50
2023-04-27T15:45:36.812Z,16.40
2023-04-27T15:48:04.019Z,16.40
2023-04-27T15:50:31.355Z,16.20
2023-04-27T15:52:58.265Z,16.20
2023-04-27T15:55:25.320Z,16.30
2023-04-27T15:57:53.120Z,16.20
2023-04-27T16:00:22.362Z,16.10
2023-04-27T16:02:49.842Z,16.10
2023-04-27T16:05:17.136Z,16.00
2023-04-27T16:07:45.604Z,16.10
2023-04-27T16:10:13.070Z,16.10
2023-04-27T16:12:40.613Z,16.20
2023-04-27T16:15:10.896Z,16.20
2023-04-27T16:17:38.696Z,16.20
2023-04-27T16:20:07.122Z,16.10
2023-04-27T16:22:35.134Z,16.10
2023-04-27T16:25:03.754Z,15.90
2023-04-27T16:27:31.061Z,15.70
2023-04-27T16:29:57.989Z,15.70
2023-04-27T16:32:25.014Z,15.70
2023-04-27T16:34:52.016Z,15.70
2023-04-27T16:37:18.951Z,15.60
2023-04-27T16:39:46.527Z,15.50
2023-04-27T16:42:18.552Z,15.50
2023-04-27T16:44:46.231Z,15.50
2023-04-27T16:47:13.242Z,15.40
2023-04-27T16:49:43.319Z,15.40
2023-04-27T16:52:11.268Z,15.30
2023-04-27T16:54:38.297Z,15.20
2023-04-27T16:57:05.268Z,15.20
2023-04-27T16:59:32.498Z,15.20
2023-04-27T17:02:09.078Z,15.20
2023-04-27T17:04:40.784Z,15.20
2023-04-27T17:07:09.126Z,15.20
2023-04-27T17:09:38.832Z,15.20
2023-04-27T17:12:11.110Z,15.30
2023-04-27T17:14:39.082Z,15.30
2023-04-27T17:17:06.787Z,15.40
2023-04-27T17:19:33.768Z,15.30
2023-04-27T17:22:00.805Z,15.30
2023-04-27T17:24:27.976Z,15.30
2023-04-27T17:26:54.930Z,15.20
2023-04-27T17:29:21.968Z,15.00
2023-04-27T17:31:50.173Z,14.90
2023-04-27T17:34:17.233Z,14.80
2023-04-27T17:36:44.197Z,14.80
2023-04-27T17:39:12.999Z,14.60
2023-04-27T17:41:40.738Z,14.50
2023-04-27T17:44:07.824Z,14.40
2023-04-27T17:46:34.864Z,14.30
2023-04-27T17:49:01.853Z,14.40
2023-04-27T17:51:28.757Z,14.30
2023-04-27T17:53:55.710Z,14.30
2023-04-27T17:56:22.785Z,14.30
2023-04-27T17:58:49.681Z,14.30
2023-04-27T18:01:16.697Z,14.30
2023-04-27T18:03:43.823Z,14.30
2023-04-27T18:06:10.943Z,14.30
2023-04-27T18:08:37.910Z,14.20
2023-04-27T18:11:06.593Z,14.20
2023-04-27T18:13:33.694Z,14.10
2023-04-27T18:16:00.814Z,14.10
2023-04-27T18:18:28.327Z,14.10
2023-04-27T18:20:55.238Z,14.00
2023-04-27T18:23:22.578Z,14.00
2023-04-27T18:25:49.877Z,13.90
2023-04-27T18:28:16.866Z,13.90
2023-04-27T18:30:43.820Z,13.80
2023-04-27T18:33:10.922Z,13.80
2023-04-27T18:35:38.048Z,13.60
2023-04-27T18:38:05.848Z,13.60
2023-04-27T18:40:36.064Z,13.60
2023-04-27T18:43:03.114Z,13.60
2023-04-27T18:45:30.208Z,13.50
2023-04-27T18:47:57.280Z,13.40
2023-04-27T18:50:24.181Z,13.40
2023-04-27T18:52:51.262Z,13.30
2023-04-27T18:55:18.585Z,13.20
2023-04-27T18:57:46.199Z,13.20
2023-04-27T19:00:13.846Z,13.10
2023-04-27T19:02:40.919Z,13.10
2023-04-27T19:05:12.924Z,13.00
2023-04-27T19:07:40.855Z,12.90
2023-04-27T19:10:08.791Z,12.90
2023-04-27T19:12:35.950Z,12.90
2023-04-27T19:15:03.138Z,12.90
2023-04-27T19:17:30.874Z,12.90
2023-04-27T19:19:58.471Z,12.90
2023-04-27T19:22:27.268Z,12.80
2023-04-27T19:24:54.329Z,12.80
2023-04-27T19:27:21.249Z,12.90
2023-04-27T19:29:53.490Z,12.90
2023-04-27T19:32:22.014Z,12.80
2023-04-27T19:34:49.407Z,12.80
2023-04-27T19:37:16.565Z,12.80
2023-04-27T19:39:43.498Z,12.70
2023-04-27T19:42:10.599Z,12.70
2023-04-27T19:44:37.491Z,12.60
2023-04-27T19:47:04.535Z,12.60
2023-04-27T19:49:35.056Z,12.50
2023-04-27T19:52:02.369Z,12.40
2023-04-27T19:54:29.552Z,12.40
2023-04-27T19:56:56.710Z,12.30
2023-04-27T19:59:24.108Z,12.30
2023-04-27T20:01:51.187Z,12.20
2023-04-27T20:04:18.902Z,12.20
2023-04-27T20:06:47.274Z,12.10
2023-04-27T20:09:14.288Z,12.00
2023-04-27T20:11:41.209Z,11.90
2023-04-27T20:14:08.142Z,11.80
2023-04-27T20:16:35.078Z,11.80
2023-04-27T20:19:02.073Z,11.80
2023-04-27T20:21:29.374Z,11.80
2023-04-27T20:23:56.407Z,11.80
2023-04-27T20:26:24.464Z,11.90
2023-04-27T20:28:51.423Z,11.90
2023-04-27T20:31:18.437Z,11.80
2023-04-27T20:33:45.372Z,11.70
2023-04-27T20:36:17.210Z,11.70
2023-04-27T20:38:46.338Z,11.70
2023-04-27T20:41:13.661Z,11.70
2023-04-27T20:43:40.939Z,11.80
2023-04-27T20:46:10.598Z,11.70
2023-04-27T20:48:38.104Z,11.70
2023-04-27T20:51:05.244Z,11.60
2023-04-27T20:53:32.257Z,11.60
2023-04-27T20:55:59.242Z,11.50
2023-04-27T20:58:26.280Z,11.40
2023-04-27T21:00:53.298Z,11.40
2023-04-27T21:03:21.040Z,11.30
2023-04-27T21:05:49.189Z,11.30
2023-04-27T21:08:16.963Z,11.20
2023-04-27T21:10:44.648Z,11.20
2023-04-27T21:13:11.746Z,11.30
2023-04-27T21:15:38.984Z,11.40
2023-04-27T21:18:07.882Z,11.50
2023-04-27T21:20:36.401Z,11.50
2023-04-27T21:23:03.564Z,11.50
2023-04-27T21:25:30.909Z,11.40
2023-04-27T21:27:57.898Z,11.40
2023-04-27T21:30:24.931Z,11.50
2023-04-27T21:32:52.032Z,11.50
2023-04-27T21:35:19.034Z,11.50
2023-04-27T21:37:46.054Z,11.50
2023-04-27T21:40:13.423Z,11.40
2023-04-27T21:42:40.782Z,11.40
2023-04-27T21:45:08.737Z,11.30
2023-04-27T21:47:35.766Z,11.30
2023-04-27T21:50:03.279Z,11.40
2023-04-27T21:52:30.177Z,11.40
2023-04-27T21:54:57.254Z,11.40
2023-04-27T21:57:24.159Z,11.40
2023-04-27T21:59:51.089Z,11.30
2023-04-27T22:02:18.046Z,11.30
2023-04-27T22:04:45.447Z,11.30
2023-04-27T22:07:12.732Z,11.30
2023-04-27T22:09:39.674Z,11.40
2023-04-27T22:12:07.014Z,11.40
2023-04-27T22:14:33.996Z,11.50
2023-04-27T22:17:01.102Z,11.50
2023-04-27T22:19:28.814Z,11.40
2023-04-27T22:21:56.137Z,11.40
2023-04-27T22:24:23.755Z,11.40
2023-04-27T22:26:50.930Z,11.30
2023-04-27T22:29:18.148Z,11.40
2023-04-27T22:31:45.650Z,11.40
2023-04-27T22:34:13.285Z,11.40
2023-04-27T22:36:41.318Z,11.40
2023-04-27T22:39:09.012Z,11.30
2023-04-27T22:41:36.159Z,11.30
2023-04-27T22:44:03.153Z,11.30
2023-04-27T22:46:30.130Z,11.30
2023-04-27T22:48:58.634Z,11.30
2023-04-27T22:51:27.258Z,11.20
2023-04-27T22:53:54.708Z,11.10
2023-04-27T22:56:22.676Z,11.00
2023-04-27T22:58:49.719Z,11.00
2023-04-27T23:01:16.979Z,11.00
2023-04-27T23:03:45.288Z,10.90
2023-04-27T23:06:15.463Z,10.90
2023-04-27T23:08:44.739Z,10.90
2023-04-27T23:11:13.848Z,10.90
2023-04-27T23:13:40.841Z,10.80
2023-04-27T23:16:10.042Z,10.80
2023-04-27T23:18:37.212Z,10.70
2023-04-27T23:21:04.261Z,10.70
2023-04-27T23:23:31.283Z,10.60
2023-04-27T23:25:58.196Z,10.60
2023-04-27T23:28:25.195Z,10.50
2023-04-27T23:30:54.451Z,10.50
2023-04-27T23:33:22.093Z,10.40
2023-04-27T23:35:49.051Z,10.40
2023-04-27T23:38:16.025Z,10.30
2023-04-27T23:40:43.011Z,10.30
2023-04-27T23:43:09.945Z,10.30
2023-04-27T23:45:36.902Z,10.20
2023-04-27T23:48:04.167Z,10.20
2023-04-27T23:50:31.258Z,10.10
2023-04-27T23:52:58.148Z,10.10
2023-04-27T23:55:25.323Z,10.10
2023-04-27T23:57:52.535Z,10.10
